Time;durP1;ratioP1;P1;durP2;ratioP2;P2;SDS_P1;SDS_P2;PMS_P1;PMS_P2;Temp;Humidity;BMP_temperature;BMP_pressure;BME280_temperature;BME280_humidity;BME280_pressure;Samples;Min_cycle;Max_cycle;Signal;HPM_P1;HPM_P2
2023/03/16 00:00:35;;;;;;;6.33;4.00;;;5.50;93.50;;;;;;4920721;29;20517;-82
2023/03/16 00:03:22;;;;;;;5.27;4.70;;;5.60;93.60;;;;;;4946783;29;20490;-82
2023/03/16 00:06:03;;;;;;;7.07;4.20;;;5.50;93.40;;;;;;4907451;29;20466;-82
2023/03/16 00:08:42;;;;;;;7.70;5.40;;;5.40;93.50;;;;;;4924205;29;20500;-83
2023/03/16 00:11:20;;;;;;;6.07;4.47;;;5.50;93.80;;;;;;4933355;29;20495;-84
2023/03/16 00:13:55;;;;;;;6.50;4.43;;;5.50;93.70;;;;;;4928293;29;20450;-85
2023/03/16 00:16:52;;;;;;;7.60;4.87;;;5.40;93.70;;;;;;4938942;29;20457;-81
2023/03/16 00:19:34;;;;;;;6.30;4.40;;;5.40;93.90;;;;;;4932849;29;20482;-85
2023/03/16 00:22:06;;;;;;;3.97;3.60;;;5.50;93.70;;;;;;4927895;29;20495;-84
2023/03/16 00:24:42;;;;;;;6.80;4.13;;;5.50;93.60;;;;;;4964203;29;20445;-85
2023/03/16 00:27:24;;;;;;;5.00;4.50;;;5.60;93.50;;;;;;4934644;29;20459;-85
2023/03/16 00:30:10;;;;;;;4.97;3.97;;;5.40;93.50;;;;;;4941335;29;21177;-85
2023/03/16 00:32:40;;;;;;;4.70;4.10;;;5.50;93.80;;;;;;4951525;29;20464;-84
2023/03/16 00:35:17;;;;;;;4.47;3.80;;;5.40;93.80;;;;;;4937875;29;20537;-84
2023/03/16 00:37:56;;;;;;;6.30;4.00;;;5.50;93.80;;;;;;4958914;28;20448;-83
2023/03/16 00:40:26;;;;;;;5.33;3.77;;;5.50;93.70;;;;;;4936873;29;20460;-83
2023/03/16 00:43:31;;;;;;;7.20;3.77;;;5.50;93.70;;;;;;4942017;29;20433;-83
2023/03/16 00:46:05;;;;;;;5.03;4.27;;;5.40;93.70;;;;;;4939175;29;20461;-83
2023/03/16 00:48:46;;;;;;;5.67;4.10;;;5.50;93.70;;;;;;4934684;29;20496;-83
2023/03/16 00:51:35;;;;;;;5.90;4.33;;;5.50;93.70;;;;;;4932153;29;20482;-83
2023/03/16 00:54:11;;;;;;;6.07;4.03;;;5.50;93.60;;;;;;4936568;29;20968;-83
2023/03/16 00:57:07;;;;;;;6.07;2.97;;;5.40;93.90;;;;;;4940408;29;20470;-86
2023/03/16 00:59:47;;;;;;;5.03;3.63;;;5.40;94.00;;;;;;4939095;29;20481;-84
2023/03/16 01:02:24;;;;;;;3.63;3.30;;;5.30;94.00;;;;;;4934424;29;20457;-84
2023/03/16 01:05:02;;;;;;;3.93;3.00;;;5.30;94.10;;;;;;4946763;29;20469;-85
2023/03/16 01:07:51;;;;;;;4.60;3.33;;;5.30;94.00;;;;;;4937217;29;20548;-81
2023/03/16 01:10:19;;;;;;;8.93;3.70;;;5.40;93.80;;;;;;4935765;29;20517;-82
2023/03/16 01:12:59;;;;;;;4.00;3.60;;;5.40;93.70;;;;;;4941765;29;20456;-82
2023/03/16 01:15:48;;;;;;;;;;;;;;;;;;;;;
2023/03/16 01:18:19;;;;;;;3.43;3.13;;;5.30;93.80;;;;;;4950992;29;20468;-83
2023/03/16 01:21:02;;;;;;;4.10;2.87;;;5.30;94.00;;;;;;4938748;29;20461;-84
2023/03/16 01:23:44;;;;;;;4.70;3.40;;;5.20;94.10;;;;;;4947247;29;20821;-83
2023/03/16 01:26:27;;;;;;;5.87;3.53;;;5.20;94.20;;;;;;4941716;29;20453;-84
2023/03/16 01:29:08;;;;;;;8.23;4.13;;;5.30;94.50;;;;;;4955344;28;20465;-83
2023/03/16 01:31:54;;;;;;;4.63;3.73;;;5.30;94.30;;;;;;4940143;29;20495;-83
2023/03/16 01:34:35;;;;;;;6.07;3.03;;;5.30;94.20;;;;;;4935111;29;20516;-84
2023/03/16 01:37:24;;;;;;;9.87;3.60;;;5.30;94.00;;;;;;4945298;29;20464;-84
2023/03/16 01:40:17;;;;;;;4.50;3.73;;;5.20;93.90;;;;;;4961282;28;20480;-83
2023/03/16 01:43:26;;;;;;;4.77;3.13;;;5.20;93.90;;;;;;4962180;29;20501;-83
2023/03/16 01:46:05;;;;;;;3.53;3.00;;;5.20;93.90;;;;;;4969515;28;20500;-83
2023/03/16 01:49:25;;;;;;;5.90;3.37;;;5.10;94.10;;;;;;4964025;28;20491;-84
2023/03/16 01:52:21;;;;;;;3.40;2.50;;;5.20;94.20;;;;;;4919602;29;20491;-85
2023/03/16 01:55:07;;;;;;;3.00;2.80;;;5.40;93.80;;;;;;4944523;29;20513;-84
2023/03/16 01:57:50;;;;;;;3.97;3.50;;;5.40;93.70;;;;;;4942675;29;20466;-84
2023/03/16 02:00:37;;;;;;;5.27;3.27;;;5.30;93.70;;;;;;4942216;29;20465;-84
2023/03/16 02:03:33;;;;;;;3.80;3.10;;;5.30;93.80;;;;;;4948385;29;20479;-81
2023/03/16 02:06:24;;;;;;;3.80;2.60;;;5.40;93.60;;;;;;4960093;29;20535;-83
2023/03/16 02:09:06;;;;;;;3.90;2.40;;;5.20;93.80;;;;;;4957360;29;20515;-83
2023/03/16 02:11:57;;;;;;;4.17;3.00;;;5.20;93.80;;;;;;4940983;29;21071;-81
2023/03/16 02:14:28;;;;;;;3.93;3.10;;;5.20;94.00;;;;;;4939062;29;20453;-83
2023/03/16 02:17:17;;;;;;;4.40;3.00;;;5.20;94.00;;;;;;4951031;29;20453;-84
2023/03/16 02:20:28;;;;;;;4.77;3.30;;;5.20;94.00;;;;;;4941330;29;21042;-83
2023/03/16 02:23:17;;;;;;;4.10;3.33;;;5.40;93.70;;;;;;4954771;29;20480;-83
2023/03/16 02:26:09;;;;;;;6.00;4.00;;;5.40;93.50;;;;;;4958326;29;20464;-83
2023/03/16 02:29:20;;;;;;;4.30;2.90;;;5.30;93.60;;;;;;4954918;29;20481;-83
2023/03/16 02:31:58;;;;;;;5.97;3.33;;;5.20;93.70;;;;;;4921051;29;20565;-82
2023/03/16 02:34:39;;;;;;;3.40;2.77;;;5.50;93.40;;;;;;4940595;29;20504;-82
2023/03/16 02:37:16;;;;;;;6.30;3.07;;;5.50;93.10;;;;;;4944437;29;20453;-82
2023/03/16 02:39:49;;;;;;;4.47;2.87;;;5.40;93.20;;;;;;4924431;29;20985;-82
2023/03/16 02:42:27;;;;;;;5.70;3.33;;;5.40;93.30;;;;;;4943331;29;20579;-84
2023/03/16 02:44:59;;;;;;;4.37;3.17;;;5.30;93.40;;;;;;4943886;29;21055;-82
2023/03/16 02:47:45;;;;;;;5.13;3.40;;;5.30;93.60;;;;;;4944352;29;20453;-85
2023/03/16 02:50:21;;;;;;;5.63;2.87;;;5.20;93.90;;;;;;4945193;29;20465;-84
2023/03/16 02:53:00;;;;;;;4.40;2.97;;;5.20;93.80;;;;;;4927285;29;21075;-83
2023/03/16 02:55:39;;;;;;;4.50;2.97;;;5.10;93.90;;;;;;4943922;29;20445;-82
2023/03/16 02:58:18;;;;;;;3.90;2.63;;;5.20;94.00;;;;;;4958270;29;20830;-81
2023/03/16 03:00:55;;;;;;;3.90;3.10;;;5.20;94.00;;;;;;4941600;29;20465;-82
2023/03/16 03:03:33;;;;;;;3.33;3.00;;;5.20;93.90;;;;;;4933699;29;20461;-82
2023/03/16 03:06:06;;;;;;;6.40;4.73;;;5.30;93.90;;;;;;4938071;29;20520;-81
2023/03/16 03:08:39;;;;;;;3.60;2.60;;;5.30;93.80;;;;;;4944340;29;20472;-82
2023/03/16 03:11:23;;;;;;;4.13;2.23;;;5.30;93.80;;;;;;4947040;28;20472;-82
2023/03/16 03:13:54;;;;;;;3.83;2.50;;;5.40;93.40;;;;;;4954549;29;20461;-81
2023/03/16 03:16:30;;;;;;;2.73;2.57;;;5.50;93.10;;;;;;4935444;29;20462;-80
2023/03/16 03:22:32;;;;;;;3.77;3.10;;;5.30;93.40;;;;;;4962771;28;20460;-84
2023/03/16 03:25:07;;;;;;;4.83;2.77;;;5.20;93.80;;;;;;4954702;29;20442;-83
2023/03/16 03:27:41;;;;;;;6.33;2.90;;;5.10;94.00;;;;;;4962174;29;20453;-83
2023/03/16 03:30:44;;;;;;;5.93;2.80;;;5.30;94.00;;;;;;4978030;29;20469;-83
2023/03/16 03:33:23;;;;;;;4.10;2.53;;;5.30;94.00;;;;;;4975321;28;20469;-84
2023/03/16 03:36:14;;;;;;;4.60;2.60;;;5.40;93.80;;;;;;4964271;28;20452;-83
2023/03/16 03:38:53;;;;;;;2.80;2.60;;;5.50;93.40;;;;;;4960670;29;20484;-84
2023/03/16 03:41:25;;;;;;;3.47;2.90;;;5.50;93.20;;;;;;4959874;28;20453;-84
2023/03/16 03:43:57;;;;;;;5.57;3.03;;;5.50;93.10;;;;;;4958160;29;20445;-83
2023/03/16 03:46:42;;;;;;;2.63;2.37;;;5.50;93.10;;;;;;4955582;29;20441;-82
2023/03/16 03:49:21;;;;;;;2.83;2.63;;;5.50;93.20;;;;;;4952933;28;20512;-83
2023/03/16 03:51:53;;;;;;;5.57;3.10;;;5.40;93.10;;;;;;4923752;29;20477;-83
2023/03/16 03:54:38;;;;;;;4.30;2.80;;;5.40;93.40;;;;;;4935272;28;20465;-84
2023/03/16 03:57:13;;;;;;;5.03;3.40;;;5.40;93.40;;;;;;4940498;29;20445;-82
2023/03/16 03:59:55;;;;;;;4.07;3.03;;;5.40;93.60;;;;;;4943912;29;20516;-82
2023/03/16 04:02:29;;;;;;;2.83;2.20;;;5.30;93.60;;;;;;4943398;29;20449;-83
2023/03/16 04:04:57;;;;;;;3.57;2.63;;;5.10;93.70;;;;;;4942865;29;20878;-84
2023/03/16 04:07:37;;;;;;;4.50;3.20;;;5.30;93.90;;;;;;4936216;29;20488;-85
2023/03/16 04:10:26;;;;;;;4.03;3.23;;;5.40;93.60;;;;;;4942673;29;20453;-81
2023/03/16 04:13:05;;;;;;;4.33;3.20;;;5.40;93.60;;;;;;4939319;29;20489;-85
2023/03/16 04:16:06;;;;;;;6.83;3.27;;;5.30;93.40;;;;;;4950768;29;20461;-83
2023/03/16 04:18:39;;;;;;;4.97;2.53;;;5.40;93.50;;;;;;4936582;29;20552;-83
2023/03/16 04:21:18;;;;;;;2.60;2.40;;;5.40;93.50;;;;;;4937281;29;20457;-83
2023/03/16 04:23:53;;;;;;;4.30;2.97;;;5.50;93.30;;;;;;4930979;29;20462;-83
2023/03/16 04:26:44;;;;;;;3.50;3.10;;;5.50;93.10;;;;;;4907479;29;20454;-83
2023/03/16 04:29:22;;;;;;;3.97;2.87;;;5.40;93.00;;;;;;4926364;29;20488;-83
2023/03/16 04:32:02;;;;;;;3.40;3.10;;;5.20;93.20;;;;;;4941309;29;20492;-83
2023/03/16 04:34:42;;;;;;;3.17;2.43;;;5.30;93.40;;;;;;4912262;29;20978;-82
2023/03/16 04:37:30;;;;;;;3.33;3.03;;;5.30;93.40;;;;;;4918443;29;20499;-82
2023/03/16 04:40:09;;;;;;;3.20;2.70;;;5.50;93.50;;;;;;4920357;29;20490;-83
2023/03/16 04:43:03;;;;;;;6.30;3.40;;;5.30;93.50;;;;;;4930071;29;20466;-83
2023/03/16 04:45:40;;;;;;;5.53;3.33;;;5.40;93.50;;;;;;4922624;29;20801;-82
2023/03/16 04:48:18;;;;;;;3.27;2.80;;;5.40;93.20;;;;;;4920156;29;20492;-81
2023/03/16 04:51:09;;;;;;;5.67;3.30;;;5.50;93.30;;;;;;4922497;29;20466;-82
2023/03/16 04:53:43;;;;;;;3.50;3.17;;;5.60;93.10;;;;;;4926183;29;20480;-82
2023/03/16 04:56:29;;;;;;;5.93;3.40;;;5.50;93.20;;;;;;4923305;29;20457;-83
2023/03/16 04:59:04;;;;;;;2.80;2.23;;;5.50;93.20;;;;;;4919641;29;20501;-82
2023/03/16 05:01:42;;;;;;;4.77;3.10;;;5.50;93.50;;;;;;4926131;29;20477;-85
2023/03/16 05:07:24;;;;;;;4.37;3.53;;;5.60;93.40;;;;;;5093322;23;20526;-83
2023/03/16 05:09:55;;;;;;;5.20;4.03;;;5.60;93.30;;;;;;4964756;28;20498;-81
2023/03/16 05:12:33;;;;;;;3.53;3.03;;;5.60;93.30;;;;;;4978090;28;20674;-83
2023/03/16 05:15:10;;;;;;;4.30;3.63;;;5.70;93.30;;;;;;4968330;28;20467;-84
2023/03/16 05:17:43;;;;;;;3.50;3.20;;;5.60;93.30;;;;;;4956121;29;20456;-83
2023/03/16 05:20:21;;;;;;;5.90;3.07;;;5.50;93.40;;;;;;4952973;28;20504;-82
2023/03/16 05:22:56;;;;;;;4.10;3.00;;;5.40;93.50;;;;;;4959597;28;20514;-82
2023/03/16 05:25:31;;;;;;;4.87;3.47;;;5.40;93.80;;;;;;4976229;28;20456;-82
2023/03/16 05:28:02;;;;;;;4.77;3.97;;;5.50;93.90;;;;;;4963091;28;20459;-84
2023/03/16 05:30:38;;;;;;;4.73;3.97;;;5.40;93.80;;;;;;4959560;28;20483;-82
2023/03/16 05:33:11;;;;;;;5.27;3.87;;;5.40;94.10;;;;;;4966347;28;20559;-82
2023/03/16 05:35:50;;;;;;;5.90;4.23;;;5.40;94.10;;;;;;4957567;28;20532;-85
2023/03/16 05:38:27;;;;;;;5.57;4.10;;;5.30;94.40;;;;;;4957208;28;20992;-83
2023/03/16 05:41:00;;;;;;;5.80;4.23;;;5.20;94.60;;;;;;4962951;28;20606;-84
2023/03/16 05:44:13;;;;;;;5.83;3.80;;;5.50;94.50;;;;;;4907059;29;20940;-83
2023/03/16 05:47:00;;;;;;;9.50;5.50;;;5.50;94.40;;;;;;4907141;29;20478;-84
2023/03/16 05:49:40;;;;;;;7.73;4.63;;;5.40;94.40;;;;;;4917762;29;20463;-83
2023/03/16 05:52:21;;;;;;;7.67;5.03;;;5.30;94.50;;;;;;4881125;29;20486;-79
2023/03/16 05:54:51;;;;;;;6.53;4.10;;;5.30;94.70;;;;;;4898439;29;20483;-84
2023/03/16 05:57:27;;;;;;;5.03;4.00;;;5.40;94.70;;;;;;4916954;29;20481;-84
2023/03/16 06:00:38;;;;;;;6.80;4.37;;;5.60;94.30;;;;;;4898405;29;20467;-83
2023/03/16 06:03:11;;;;;;;6.00;4.37;;;5.40;94.30;;;;;;4919770;29;20486;-81
2023/03/16 06:05:58;;;;;;;5.30;4.47;;;5.50;94.30;;;;;;4905893;29;20470;-82
2023/03/16 06:08:41;;;;;;;7.50;4.83;;;5.70;94.20;;;;;;4962821;28;20479;-82
2023/03/16 06:11:27;;;;;;;4.43;3.97;;;5.70;93.80;;;;;;4990484;28;20448;-83
2023/03/16 06:14:02;;;;;;;5.30;4.00;;;5.80;93.80;;;;;;4961202;28;20456;-84
2023/03/16 06:16:45;;;;;;;4.87;4.07;;;5.70;93.80;;;;;;4957729;28;20535;-84
2023/03/16 06:19:24;;;;;;;6.07;4.97;;;5.70;93.80;;;;;;4984902;28;20514;-83
2023/03/16 06:22:22;;;;;;;7.00;4.47;;;5.70;93.90;;;;;;4965768;28;20487;-83
2023/03/16 06:25:01;;;;;;;9.37;4.57;;;5.80;93.80;;;;;;4982758;28;20460;-84
2023/03/16 06:27:42;;;;;;;4.13;3.77;;;5.80;93.60;;;;;;4961140;28;20468;-83
2023/03/16 06:30:30;;;;;;;9.13;4.63;;;5.80;93.70;;;;;;4961840;29;20480;-82
2023/03/16 06:36:38;;;;;;;5.73;3.57;;;5.70;93.70;;;;;;4979749;28;20503;-83
2023/03/16 06:39:19;;;;;;;4.67;3.33;;;6.00;93.60;;;;;;4969306;28;20460;-83
2023/03/16 06:42:00;;;;;;;3.97;3.60;;;6.10;93.30;;;;;;4957873;29;20499;-83
2023/03/16 06:44:27;;;;;;;4.67;4.17;;;6.10;93.10;;;;;;4986372;28;20464;-83
2023/03/16 06:47:03;;;;;;;5.37;4.47;;;6.20;93.10;;;;;;4990311;28;20445;-85
2023/03/16 06:49:42;;;;;;;5.30;4.23;;;6.10;92.90;;;;;;4977479;28;20478;-85
2023/03/16 06:52:19;;;;;;;5.87;4.23;;;6.10;93.10;;;;;;4977650;28;20512;-84
2023/03/16 06:54:57;;;;;;;3.03;2.60;;;5.90;93.30;;;;;;5142676;23;20516;-84
2023/03/16 06:57:28;;;;;;;5.50;3.83;;;6.20;93.20;;;;;;4982098;28;20447;-84
2023/03/16 07:00:11;;;;;;;4.87;3.47;;;6.20;92.80;;;;;;4979935;28;20493;-85
2023/03/16 07:02:42;;;;;;;4.80;4.30;;;6.20;92.90;;;;;;4973814;28;20470;-86
2023/03/16 07:05:24;;;;;;;2.50;2.30;;;6.10;92.90;;;;;;4975706;28;20539;-84
2023/03/16 07:07:54;;;;;;;4.30;3.60;;;6.10;93.10;;;;;;4976452;28;20652;-85
2023/03/16 07:10:59;;;;;;;4.93;4.30;;;6.40;92.80;;;;;;4976721;28;20456;-84
2023/03/16 07:13:26;;;;;;;4.77;3.97;;;6.40;92.80;;;;;;4989716;28;20551;-85
2023/03/16 07:19:02;;;;;;;7.83;4.83;;;6.40;92.60;;;;;;4979765;28;20495;-82
2023/03/16 07:21:46;;;;;;;5.87;4.40;;;6.30;92.70;;;;;;4957554;28;20544;-84
2023/03/16 07:24:14;;;;;;;5.50;4.80;;;6.50;92.70;;;;;;4972460;28;20487;-82
2023/03/16 07:26:47;;;;;;;5.43;4.27;;;6.70;92.50;;;;;;4975985;28;20455;-83
2023/03/16 07:29:15;;;;;;;5.80;3.90;;;6.60;92.10;;;;;;4977901;28;20917;-83
2023/03/16 07:31:44;;;;;;;5.53;3.70;;;6.60;92.20;;;;;;4958855;28;20544;-83
2023/03/16 07:34:22;;;;;;;5.60;4.03;;;6.80;92.40;;;;;;4981448;28;20515;-82
2023/03/16 07:36:52;;;;;;;4.20;3.80;;;6.80;92.20;;;;;;4960908;28;20961;-82
2023/03/16 07:39:25;;;;;;;7.43;4.30;;;6.80;92.00;;;;;;4957931;28;20487;-82
2023/03/16 07:41:55;;;;;;;7.03;3.93;;;6.80;92.00;;;;;;4979115;28;20936;-81
2023/03/16 07:44:37;;;;;;;4.60;3.63;;;6.90;92.10;;;;;;4962115;28;20537;-83
2023/03/16 07:47:13;;;;;;;4.53;4.03;;;7.20;92.00;;;;;;4965898;28;20498;-83
2023/03/16 07:49:43;;;;;;;3.37;3.07;;;7.20;91.30;;;;;;4953989;28;20563;-82
2023/03/16 07:52:13;;;;;;;4.27;3.87;;;7.30;91.20;;;;;;4972722;28;20483;-82
2023/03/16 07:54:42;;;;;;;4.67;3.70;;;7.20;91.20;;;;;;4974980;28;20470;-83
2023/03/16 07:57:30;;;;;;;4.83;3.27;;;7.20;91.40;;;;;;4964943;28;20452;-79
2023/03/16 08:00:04;;;;;;;5.27;3.97;;;7.50;91.20;;;;;;4968917;28;20468;-84
2023/03/16 08:02:31;;;;;;;4.30;3.63;;;7.60;91.00;;;;;;4960468;28;20442;-84
2023/03/16 08:05:05;;;;;;;4.50;3.67;;;7.60;90.70;;;;;;4989464;28;20487;-80
2023/03/16 08:07:35;;;;;;;6.17;4.47;;;7.50;90.70;;;;;;4994394;28;20483;-80
2023/03/16 08:10:03;;;;;;;4.60;3.30;;;7.50;91.00;;;;;;4976334;28;20552;-84
2023/03/16 08:16:09;;;;;;;4.30;3.87;;;7.50;90.90;;;;;;4970517;28;20447;-81
2023/03/16 08:18:42;;;;;;;3.40;3.10;;;7.50;90.90;;;;;;4976807;28;20487;-82
2023/03/16 08:21:09;;;;;;;2.57;2.30;;;7.70;91.00;;;;;;4978710;28;20453;-83
2023/03/16 08:23:39;;;;;;;4.83;3.63;;;7.70;90.90;;;;;;4972485;28;20456;-81
2023/03/16 08:26:07;;;;;;;3.63;3.00;;;7.70;90.80;;;;;;4954054;28;20456;-83
2023/03/16 08:28:37;;;;;;;2.73;2.53;;;7.70;90.80;;;;;;4961685;28;20520;-83
2023/03/16 08:31:09;;;;;;;5.67;3.90;;;7.80;90.80;;;;;;4997923;28;20498;-85
2023/03/16 08:33:44;;;;;;;5.47;3.87;;;7.70;90.80;;;;;;4976224;28;20482;-84
2023/03/16 08:36:19;;;;;;;5.03;3.73;;;7.70;90.70;;;;;;4993568;28;20479;-85
2023/03/16 08:38:53;;;;;;;5.20;3.77;;;7.60;90.90;;;;;;4966828;28;20854;-83
2023/03/16 08:41:47;;;;;;;4.70;4.07;;;7.70;91.10;;;;;;4992480;28;20470;-85
2023/03/16 08:44:41;;;;;;;4.87;4.00;;;8.00;91.00;;;;;;4924747;29;20459;-82
2023/03/16 08:47:18;;;;;;;3.53;2.83;;;8.10;90.70;;;;;;4932770;29;20459;-83
2023/03/16 08:49:53;;;;;;;6.17;3.60;;;8.00;90.20;;;;;;4908135;29;20476;-83
2023/03/16 08:52:23;;;;;;;4.90;3.67;;;8.00;90.40;;;;;;4921642;29;20857;-84
2023/03/16 08:54:54;;;;;;;5.03;3.90;;;7.90;90.60;;;;;;4920700;29;20471;-83
2023/03/16 08:57:30;;;;;;;5.13;4.40;;;8.00;90.50;;;;;;4898155;29;20467;-83
2023/03/16 09:00:14;;;;;;;3.40;2.77;;;8.10;90.30;;;;;;4921868;29;20489;-84
2023/03/16 09:02:55;;;;;;;3.40;3.10;;;8.10;90.00;;;;;;4925395;29;20477;-82
2023/03/16 09:05:28;;;;;;;6.10;3.80;;;8.00;90.30;;;;;;4918593;29;20969;-80
2023/03/16 09:08:00;;;;;;;4.10;3.20;;;8.10;90.40;;;;;;4899205;29;20435;-83
2023/03/16 09:10:41;;;;;;;4.20;3.23;;;8.00;90.20;;;;;;4918363;29;20457;-81
2023/03/16 09:13:08;;;;;;;5.03;4.33;;;7.90;90.60;;;;;;4903014;29;20523;-82
2023/03/16 09:15:38;;;;;;;4.50;4.10;;;8.10;90.50;;;;;;4920321;29;20498;-83
2023/03/16 09:18:10;;;;;;;4.50;4.00;;;8.10;90.30;;;;;;4917795;29;20487;-83
2023/03/16 09:20:48;;;;;;;4.60;3.23;;;8.20;90.10;;;;;;4923177;28;20477;-82
2023/03/16 09:23:22;;;;;;;2.70;2.50;;;8.30;90.10;;;;;;4959825;28;21007;-82
2023/03/16 09:25:49;;;;;;;5.97;4.30;;;8.40;90.00;;;;;;5027790;23;20492;-81
2023/03/16 09:28:17;;;;;;;6.00;4.80;;;8.30;90.20;;;;;;4954768;28;20490;-83
2023/03/16 09:30:48;;;;;;;4.40;4.00;;;8.60;90.20;;;;;;4957066;29;20643;-83
2023/03/16 09:33:20;;;;;;;6.20;4.87;;;8.80;89.30;;;;;;4969307;28;20512;-82
2023/03/16 09:35:48;;;;;;;5.87;4.23;;;9.00;88.50;;;;;;4964843;28;20453;-82
2023/03/16 09:38:24;;;;;;;6.67;5.47;;;8.80;88.10;;;;;;4958829;28;20862;-82
2023/03/16 09:41:23;;;;;;;5.60;4.67;;;8.80;88.80;;;;;;4942371;28;20444;-82
2023/03/16 09:44:09;;;;;;;5.33;4.37;;;9.20;88.50;;;;;;4958645;28;20532;-84
2023/03/16 09:46:48;;;;;;;5.77;5.23;;;9.30;87.50;;;;;;4953398;28;20450;-85
2023/03/16 09:49:20;;;;;;;5.80;4.63;;;9.30;87.60;;;;;;4946043;28;20544;-84
2023/03/16 09:52:19;;;;;;;4.73;4.10;;;9.20;87.70;;;;;;4935240;28;20465;-85
2023/03/16 09:55:10;;;;;;;6.63;4.93;;;9.10;87.10;;;;;;4957193;29;20483;-82
2023/03/16 09:57:44;;;;;;;6.00;4.40;;;8.80;88.50;;;;;;5036180;23;20847;-82
2023/03/16 10:00:53;;;;;;;5.80;5.27;;;8.70;88.70;;;;;;4979098;28;20488;-81
2023/03/16 10:04:15;;;;;;;7.77;4.60;;;8.90;88.20;;;;;;4986850;28;20439;-85
2023/03/16 10:07:37;;;;;;;4.50;4.03;;;9.00;88.10;;;;;;4982017;28;20443;-83
2023/03/16 10:10:54;;;;;;;4.63;4.07;;;8.90;88.40;;;;;;4976453;28;20431;-84
2023/03/16 10:14:31;;;;;;;4.73;3.10;;;8.70;88.10;;;;;;4984857;28;20481;-83
2023/03/16 10:17:42;;;;;;;5.10;3.53;;;8.80;88.30;;;;;;4995031;28;20943;-83
2023/03/16 10:20:44;;;;;;;4.80;4.30;;;8.80;87.80;;;;;;4973864;28;20491;-84
2023/03/16 10:23:31;;;;;;;4.20;3.80;;;8.80;88.10;;;;;;4975549;28;20440;-83
2023/03/16 10:26:01;;;;;;;4.23;3.90;;;9.00;87.80;;;;;;4980140;28;20489;-82
2023/03/16 10:28:30;;;;;;;3.60;2.90;;;9.10;87.60;;;;;;4995302;28;20503;-83
2023/03/16 10:31:03;;;;;;;4.43;3.90;;;9.10;87.10;;;;;;4990458;28;20840;-82
2023/03/16 10:33:35;;;;;;;7.83;3.57;;;9.00;87.10;;;;;;4984142;28;20529;-82
2023/03/16 10:36:14;;;;;;;4.40;3.40;;;9.20;86.40;;;;;;4995577;28;20462;-82
2023/03/16 10:38:49;;;;;;;4.50;3.90;;;9.20;86.40;;;;;;4989528;28;20479;-83
2023/03/16 10:41:17;;;;;;;3.03;2.70;;;9.40;85.70;;;;;;4984338;28;20450;-83
2023/03/16 10:44:36;;;;;;;6.10;4.03;;;9.40;85.00;;;;;;4978336;28;20470;-82
2023/03/16 10:47:15;;;;;;;5.07;4.23;;;9.40;85.60;;;;;;4973464;28;20471;-81
2023/03/16 10:49:50;;;;;;;4.40;3.97;;;9.50;85.20;;;;;;4992692;28;20487;-83
2023/03/16 10:52:28;;;;;;;4.50;3.73;;;9.80;84.60;;;;;;4983803;28;20531;-82
2023/03/16 10:55:00;;;;;;;5.63;4.10;;;9.90;83.80;;;;;;4993208;28;20456;-84
2023/03/16 10:57:32;;;;;;;3.13;2.60;;;9.80;83.40;;;;;;4994961;28;21019;-83
2023/03/16 11:00:11;;;;;;;4.30;3.60;;;9.90;82.80;;;;;;4996042;28;20482;-84
2023/03/16 11:02:42;;;;;;;2.93;2.70;;;10.00;82.10;;;;;;4975435;28;21076;-83
2023/03/16 11:05:31;;;;;;;3.10;2.60;;;10.20;81.70;;;;;;4980025;28;21011;-83
2023/03/16 11:08:31;;;;;;;5.80;3.40;;;10.40;80.10;;;;;;4983915;28;20485;-83
2023/03/16 11:11:22;;;;;;;5.63;3.87;;;11.10;78.60;;;;;;4958790;28;20562;-83
2023/03/16 11:13:58;;;;;;;4.40;3.70;;;11.50;76.30;;;;;;4978514;28;20491;-84
2023/03/16 11:16:52;;;;;;;16.53;4.03;;;11.30;75.50;;;;;;4968526;28;20551;-83
2023/03/16 11:19:59;;;;;;;4.50;3.47;;;11.30;75.80;;;;;;4974787;28;20483;-84
2023/03/16 11:22:38;;;;;;;3.57;3.10;;;11.80;76.10;;;;;;4977968;28;20452;-84
2023/03/16 11:25:51;;;;;;;7.30;3.93;;;11.80;75.00;;;;;;4965589;28;20426;-83
2023/03/16 11:28:55;;;;;;;3.17;2.33;;;11.90;72.50;;;;;;4983537;28;20477;-84
2023/03/16 11:46:01;;;;;;;4.20;3.70;;;13.70;66.50;;;;;;4992464;28;20458;-84
2023/03/16 11:49:24;;;;;;;2.60;2.40;;;13.20;65.00;;;;;;4969392;28;20483;-84
2023/03/16 11:52:40;;;;;;;2.67;2.47;;;13.30;65.00;;;;;;4983611;28;20469;-85
2023/03/16 11:59:41;;;;;;;3.53;3.00;;;14.20;63.30;;;;;;5051529;23;20602;-83
2023/03/16 12:02:55;;;;;;;3.20;2.60;;;13.60;62.20;;;;;;4978153;28;20977;-83
2023/03/16 12:05:54;;;;;;;4.17;2.87;;;14.40;61.90;;;;;;4963738;28;20555;-82
2023/03/16 12:09:15;;;;;;;2.93;2.73;;;14.30;61.20;;;;;;4973183;28;21093;-82
2023/03/16 12:16:16;;;;;;;5.10;3.30;;;13.30;62.60;;;;;;4967566;28;20470;-82
2023/03/16 12:19:52;;;;;;;7.70;3.00;;;13.60;63.40;;;;;;4952437;28;20468;-84
2023/03/16 12:22:56;;;;;;;2.03;1.80;;;14.00;63.60;;;;;;4969591;28;20456;-87
2023/03/16 12:26:04;;;;;;;1.97;1.87;;;14.30;60.80;;;;;;4974970;28;20511;-84
2023/03/16 12:28:55;;;;;;;4.93;2.77;;;14.00;61.90;;;;;;4970826;28;20538;-83
2023/03/16 12:32:10;;;;;;;2.83;2.53;;;13.70;62.50;;;;;;4964058;28;20450;-83
2023/03/16 12:35:17;;;;;;;3.97;3.27;;;13.40;63.70;;;;;;4937814;28;20832;-81
2023/03/16 12:38:16;;;;;;;2.50;2.30;;;13.00;65.00;;;;;;4970715;28;20463;-86
2023/03/16 12:41:32;;;;;;;3.83;2.63;;;13.00;65.40;;;;;;4919356;28;20465;-82
2023/03/16 12:45:31;;;;;;;3.10;2.73;;;12.90;66.50;;;;;;4960572;29;20491;-83
2023/03/16 12:48:26;;;;;;;2.73;2.30;;;13.10;66.80;;;;;;4948718;28;20452;-82
2023/03/16 12:51:06;;;;;;;3.03;2.53;;;12.90;66.10;;;;;;4974802;28;20578;-84
2023/03/16 12:54:34;;;;;;;2.63;2.43;;;12.80;66.00;;;;;;4974086;28;20515;-83
2023/03/16 12:57:25;;;;;;;3.57;2.27;;;12.80;66.50;;;;;;4969391;28;20444;-84
2023/03/16 13:00:15;;;;;;;5.97;3.27;;;12.70;66.50;;;;;;4977789;28;20464;-84
2023/03/16 13:03:07;;;;;;;1.90;1.80;;;12.40;67.10;;;;;;4964362;28;20463;-83
2023/03/16 13:06:05;;;;;;;3.60;2.90;;;12.60;67.40;;;;;;4968151;28;20487;-84
2023/03/16 13:13:02;;;;;;;3.40;2.63;;;12.70;67.20;;;;;;4975039;28;20452;-82
2023/03/16 13:16:29;;;;;;;2.50;2.30;;;12.70;66.20;;;;;;4978883;28;20464;-83
2023/03/16 13:23:08;;;;;;;6.20;2.10;;;13.00;65.80;;;;;;4991602;28;20408;-83
2023/03/16 13:26:37;;;;;;;2.30;2.10;;;13.10;65.60;;;;;;4977984;28;20435;-84
2023/03/16 13:32:47;;;;;;;2.40;2.20;;;13.20;65.20;;;;;;4979219;28;20507;-83
2023/03/16 13:35:26;;;;;;;2.07;1.60;;;13.30;64.50;;;;;;4987375;28;20483;-85
2023/03/16 13:38:49;;;;;;;2.00;1.60;;;13.70;64.50;;;;;;4975236;28;20459;-85
2023/03/16 13:41:59;;;;;;;3.30;1.93;;;14.20;61.90;;;;;;4987626;28;20452;-85
2023/03/16 13:44:40;;;;;;;2.80;1.70;;;14.10;61.50;;;;;;4969260;28;20479;-84
2023/03/16 13:47:52;;;;;;;3.37;2.00;;;14.40;61.40;;;;;;4972033;28;20470;-82
2023/03/16 13:53:03;;;;;;;2.13;1.93;;;15.20;58.80;;;;;;3065195;23;20500;-83
2023/03/16 13:55:47;;;;;;;4.40;1.90;;;14.60;58.30;;;;;;4959899;29;20456;-82
2023/03/16 13:58:33;;;;;;;1.50;1.40;;;14.60;58.80;;;;;;4977619;28;20479;-84
2023/03/16 14:04:18;;;;;;;2.80;1.77;;;14.20;58.40;;;;;;4923439;28;21016;-83
2023/03/16 14:07:23;;;;;;;3.10;2.03;;;14.10;59.40;;;;;;4965292;28;20456;-81
2023/03/16 14:13:39;;;;;;;2.77;1.93;;;14.40;60.00;;;;;;4935762;29;20493;-85
2023/03/16 14:16:30;;;;;;;2.37;1.47;;;14.70;59.40;;;;;;4959234;28;20469;-84
2023/03/16 14:20:10;;;;;;;3.83;1.33;;;14.50;59.00;;;;;;4952738;23;20482;-85
2023/03/16 14:23:00;;;;;;;1.90;1.60;;;14.30;58.80;;;;;;4951113;28;20458;-83
2023/03/16 14:25:40;;;;;;;2.10;1.80;;;14.30;59.00;;;;;;4947851;29;20475;-84
2023/03/16 14:28:18;;;;;;;3.90;1.90;;;14.10;59.20;;;;;;4947273;29;20515;-82
2023/03/16 14:35:04;;;;;;;2.37;2.17;;;14.30;59.80;;;;;;4966419;28;20513;-85
2023/03/16 14:38:21;;;;;;;3.10;2.20;;;14.20;59.10;;;;;;4954747;28;20485;-86
2023/03/16 14:44:30;;;;;;;1.70;1.60;;;14.30;59.90;;;;;;4974849;28;20527;-84
2023/03/16 14:47:06;;;;;;;2.37;1.77;;;14.10;58.90;;;;;;4968759;29;20472;-84
2023/03/16 14:49:52;;;;;;;1.77;1.67;;;14.00;60.20;;;;;;4962908;28;20485;-83
2023/03/16 14:52:33;;;;;;;1.90;1.70;;;14.10;59.70;;;;;;4947355;28;20456;-83
2023/03/16 14:55:13;;;;;;;1.93;1.63;;;13.90;60.20;;;;;;4960328;28;20519;-84
2023/03/16 14:57:49;;;;;;;2.10;1.50;;;14.00;60.30;;;;;;4942341;29;20474;-84
2023/03/16 15:00:25;;;;;;;4.67;2.30;;;13.90;60.50;;;;;;4944576;29;20472;-84
2023/03/16 15:06:21;;;;;;;1.60;1.40;;;13.80;60.40;;;;;;4949303;23;20506;-83
2023/03/16 15:12:52;;;;;;;2.00;1.77;;;13.90;61.10;;;;;;4948304;29;20482;-84
2023/03/16 15:15:45;;;;;;;4.63;2.10;;;13.70;61.00;;;;;;4921252;29;20497;-83
2023/03/16 15:18:18;;;;;;;1.63;1.50;;;13.80;61.00;;;;;;4945158;29;20497;-84
2023/03/16 15:21:40;;;;;;;2.17;2.07;;;13.70;61.10;;;;;;4948787;29;20472;-84
2023/03/16 15:24:32;;;;;;;3.80;2.33;;;13.70;61.90;;;;;;4956197;28;20446;-85
2023/03/16 15:28:07;;;;;;;2.13;1.90;;;13.60;61.80;;;;;;4983182;23;20497;-82
2023/03/16 15:30:45;;;;;;;3.60;2.20;;;13.60;61.20;;;;;;4907206;29;20448;-83
2023/03/16 15:33:31;;;;;;;2.27;2.07;;;13.50;61.90;;;;;;4902918;29;20865;-83
2023/03/16 15:36:24;;;;;;;2.70;2.50;;;13.60;62.80;;;;;;4950122;28;20455;-82
2023/03/16 15:39:01;;;;;;;2.80;2.20;;;13.50;62.90;;;;;;4959969;29;20496;-84